sensor_id;sensor_type;location;lat;lon;timestamp;temperature;humidity
820;DHT22;392;48.838;2.322;2023-03-31T00:00:27;13.00;72.70
820;DHT22;392;48.838;2.322;2023-03-31T00:02:54;13.00;71.80
820;DHT22;392;48.838;2.322;2023-03-31T00:05:23;13.00;72.60
820;DHT22;392;48.838;2.322;2023-03-31T00:07:52;13.00;72.70
820;DHT22;392;48.838;2.322;2023-03-31T00:10:27;12.90;73.60
820;DHT22;392;48.838;2.322;2023-03-31T00:12:56;12.90;75.20
820;DHT22;392;48.838;2.322;2023-03-31T00:15:24;12.80;78.50
820;DHT22;392;48.838;2.322;2023-03-31T00:17:52;12.70;82.40
820;DHT22;392;48.838;2.322;2023-03-31T00:20:19;12.70;83.70
820;DHT22;392;48.838;2.322;2023-03-31T00:22:47;12.60;84.40
820;DHT22;392;48.838;2.322;2023-03-31T00:25:15;12.40;85.50
820;DHT22;392;48.838;2.322;2023-03-31T00:27:44;12.40;85.90
820;DHT22;392;48.838;2.322;2023-03-31T00:30:15;12.40;85.80
820;DHT22;392;48.838;2.322;2023-03-31T00:32:42;12.50;84.80
820;DHT22;392;48.838;2.322;2023-03-31T00:35:09;12.50;83.70
820;DHT22;392;48.838;2.322;2023-03-31T00:37:37;12.50;79.30
820;DHT22;392;48.838;2.322;2023-03-31T00:40:06;12.50;78.70
820;DHT22;392;48.838;2.322;2023-03-31T00:42:38;12.50;76.70
820;DHT22;392;48.838;2.322;2023-03-31T00:45:28;12.60;75.00
820;DHT22;392;48.838;2.322;2023-03-31T00:48:01;12.60;72.80
820;DHT22;392;48.838;2.322;2023-03-31T00:50:39;12.70;71.30
820;DHT22;392;48.838;2.322;2023-03-31T00:53:11;12.70;69.90
820;DHT22;392;48.838;2.322;2023-03-31T00:55:45;12.70;68.90
820;DHT22;392;48.838;2.322;2023-03-31T00:58:15;12.80;68.40
820;DHT22;392;48.838;2.322;2023-03-31T01:00:46;12.80;67.90
820;DHT22;392;48.838;2.322;2023-03-31T01:03:15;12.80;67.40
820;DHT22;392;48.838;2.322;2023-03-31T01:05:45;12.80;67.00
820;DHT22;392;48.838;2.322;2023-03-31T01:08:17;12.80;66.30
820;DHT22;392;48.838;2.322;2023-03-31T01:10:51;12.80;65.80
820;DHT22;392;48.838;2.322;2023-03-31T01:13:20;12.80;65.60
820;DHT22;392;48.838;2.322;2023-03-31T01:15:50;12.80;64.20
820;DHT22;392;48.838;2.322;2023-03-31T01:18:17;12.80;64.30
820;DHT22;392;48.838;2.322;2023-03-31T01:21:14;12.80;64.00
820;DHT22;392;48.838;2.322;2023-03-31T01:24:18;12.80;63.50
820;DHT22;392;48.838;2.322;2023-03-31T01:27:36;12.90;64.10
820;DHT22;392;48.838;2.322;2023-03-31T01:30:51;12.80;63.70
820;DHT22;392;48.838;2.322;2023-03-31T01:37:21;12.70;65.90
820;DHT22;392;48.838;2.322;2023-03-31T01:40:28;12.80;66.50
820;DHT22;392;48.838;2.322;2023-03-31T01:43:22;12.70;67.00
820;DHT22;392;48.838;2.322;2023-03-31T01:45:56;12.70;67.70
820;DHT22;392;48.838;2.322;2023-03-31T01:48:34;12.70;68.10
820;DHT22;392;48.838;2.322;2023-03-31T01:51:12;12.70;68.40
820;DHT22;392;48.838;2.322;2023-03-31T01:53:47;12.70;68.50
820;DHT22;392;48.838;2.322;2023-03-31T01:56:21;12.70;68.30
820;DHT22;392;48.838;2.322;2023-03-31T01:58:55;12.70;68.80
820;DHT22;392;48.838;2.322;2023-03-31T02:01:28;12.70;69.20
820;DHT22;392;48.838;2.322;2023-03-31T02:04:00;12.70;69.40
820;DHT22;392;48.838;2.322;2023-03-31T02:06:34;12.60;69.50
820;DHT22;392;48.838;2.322;2023-03-31T02:09:08;12.70;70.00
820;DHT22;392;48.838;2.322;2023-03-31T02:11:40;12.70;69.70
820;DHT22;392;48.838;2.322;2023-03-31T02:14:11;12.70;69.70
820;DHT22;392;48.838;2.322;2023-03-31T02:16:42;12.70;69.20
820;DHT22;392;48.838;2.322;2023-03-31T02:19:13;12.80;68.70
820;DHT22;392;48.838;2.322;2023-03-31T02:21:45;12.80;68.10
820;DHT22;392;48.838;2.322;2023-03-31T02:24:16;12.90;67.40
820;DHT22;392;48.838;2.322;2023-03-31T02:26:51;12.90;67.00
820;DHT22;392;48.838;2.322;2023-03-31T02:29:20;12.90;67.00
820;DHT22;392;48.838;2.322;2023-03-31T02:31:52;12.90;66.70
820;DHT22;392;48.838;2.322;2023-03-31T02:34:24;12.90;66.30
820;DHT22;392;48.838;2.322;2023-03-31T02:36:51;13.00;65.90
820;DHT22;392;48.838;2.322;2023-03-31T02:39:22;13.00;65.00
820;DHT22;392;48.838;2.322;2023-03-31T02:41:54;13.00;65.20
820;DHT22;392;48.838;2.322;2023-03-31T02:44:21;13.00;65.10
820;DHT22;392;48.838;2.322;2023-03-31T02:46:51;13.00;65.80
820;DHT22;392;48.838;2.322;2023-03-31T02:49:20;13.00;65.80
820;DHT22;392;48.838;2.322;2023-03-31T02:51:59;13.00;65.80
820;DHT22;392;48.838;2.322;2023-03-31T02:54:46;13.00;65.80
820;DHT22;392;48.838;2.322;2023-03-31T02:57:47;12.90;65.70
820;DHT22;392;48.838;2.322;2023-03-31T03:00:35;13.00;65.90
820;DHT22;392;48.838;2.322;2023-03-31T03:03:24;13.00;65.80
820;DHT22;392;48.838;2.322;2023-03-31T03:06:00;12.90;66.00
820;DHT22;392;48.838;2.322;2023-03-31T03:09:00;12.90;65.70
820;DHT22;392;48.838;2.322;2023-03-31T03:11:40;12.90;65.80
820;DHT22;392;48.838;2.322;2023-03-31T03:14:21;12.80;65.50
820;DHT22;392;48.838;2.322;2023-03-31T03:16:56;12.90;65.70
820;DHT22;392;48.838;2.322;2023-03-31T03:19:25;12.90;65.10
820;DHT22;392;48.838;2.322;2023-03-31T03:21:53;12.90;64.70
820;DHT22;392;48.838;2.322;2023-03-31T03:24:20;12.80;64.40
820;DHT22;392;48.838;2.322;2023-03-31T03:26:48;12.90;64.80
820;DHT22;392;48.838;2.322;2023-03-31T03:29:17;12.80;64.20
820;DHT22;392;48.838;2.322;2023-03-31T03:31:45;12.80;64.60
820;DHT22;392;48.838;2.322;2023-03-31T03:34:12;12.80;64.10
820;DHT22;392;48.838;2.322;2023-03-31T03:36:39;12.80;63.40
820;DHT22;392;48.838;2.322;2023-03-31T03:39:07;12.90;63.20
820;DHT22;392;48.838;2.322;2023-03-31T03:41:34;12.80;63.10
820;DHT22;392;48.838;2.322;2023-03-31T03:44:01;12.90;63.20
820;DHT22;392;48.838;2.322;2023-03-31T03:46:30;12.90;63.00
820;DHT22;392;48.838;2.322;2023-03-31T03:48:57;12.90;63.20
820;DHT22;392;48.838;2.322;2023-03-31T03:51:25;12.80;63.20
820;DHT22;392;48.838;2.322;2023-03-31T03:53:52;12.80;63.70
820;DHT22;392;48.838;2.322;2023-03-31T03:56:19;12.80;63.60
820;DHT22;392;48.838;2.322;2023-03-31T03:58:47;12.90;63.90
820;DHT22;392;48.838;2.322;2023-03-31T04:01:14;12.90;64.20
820;DHT22;392;48.838;2.322;2023-03-31T04:03:44;12.80;64.40
820;DHT22;392;48.838;2.322;2023-03-31T04:06:11;12.80;64.60
820;DHT22;392;48.838;2.322;2023-03-31T04:08:38;12.80;63.70
820;DHT22;392;48.838;2.322;2023-03-31T04:11:11;12.80;63.60
820;DHT22;392;48.838;2.322;2023-03-31T04:13:42;12.90;63.00
820;DHT22;392;48.838;2.322;2023-03-31T04:16:09;12.90;62.60
820;DHT22;392;48.838;2.322;2023-03-31T04:18:37;12.90;62.60
820;DHT22;392;48.838;2.322;2023-03-31T04:21:09;12.90;62.00
820;DHT22;392;48.838;2.322;2023-03-31T04:23:40;12.90;61.60
820;DHT22;392;48.838;2.322;2023-03-31T04:26:11;12.90;61.60
820;DHT22;392;48.838;2.322;2023-03-31T04:28:39;12.90;61.60
820;DHT22;392;48.838;2.322;2023-03-31T04:31:09;12.90;61.00
820;DHT22;392;48.838;2.322;2023-03-31T04:33:40;13.00;60.30
820;DHT22;392;48.838;2.322;2023-03-31T04:36:12;13.00;59.50
820;DHT22;392;48.838;2.322;2023-03-31T04:38:43;13.00;60.00
820;DHT22;392;48.838;2.322;2023-03-31T04:41:12;13.00;58.80
820;DHT22;392;48.838;2.322;2023-03-31T04:43:39;13.00;57.80
820;DHT22;392;48.838;2.322;2023-03-31T04:46:07;13.00;56.60
820;DHT22;392;48.838;2.322;2023-03-31T04:48:34;13.00;56.40
820;DHT22;392;48.838;2.322;2023-03-31T04:51:02;13.00;56.40
820;DHT22;392;48.838;2.322;2023-03-31T04:53:31;13.00;55.70
820;DHT22;392;48.838;2.322;2023-03-31T04:55:59;13.00;55.40
820;DHT22;392;48.838;2.322;2023-03-31T04:58:26;13.00;54.90
820;DHT22;392;48.838;2.322;2023-03-31T05:00:53;13.00;54.50
820;DHT22;392;48.838;2.322;2023-03-31T05:03:20;13.00;54.40
820;DHT22;392;48.838;2.322;2023-03-31T05:05:48;13.00;54.20
820;DHT22;392;48.838;2.322;2023-03-31T05:08:15;13.00;53.40
820;DHT22;392;48.838;2.322;2023-03-31T05:10:44;13.00;52.90
820;DHT22;392;48.838;2.322;2023-03-31T05:13:11;13.00;52.40
820;DHT22;392;48.838;2.322;2023-03-31T05:15:38;13.00;51.90
820;DHT22;392;48.838;2.322;2023-03-31T05:18:06;13.00;51.60
820;DHT22;392;48.838;2.322;2023-03-31T05:20:34;13.00;50.70
820;DHT22;392;48.838;2.322;2023-03-31T05:23:01;13.00;49.60
820;DHT22;392;48.838;2.322;2023-03-31T05:25:28;13.00;49.60
820;DHT22;392;48.838;2.322;2023-03-31T05:27:59;13.00;50.30
820;DHT22;392;48.838;2.322;2023-03-31T05:30:27;13.00;50.00
820;DHT22;392;48.838;2.322;2023-03-31T05:32:55;13.00;49.70
820;DHT22;392;48.838;2.322;2023-03-31T05:35:23;13.00;49.60
820;DHT22;392;48.838;2.322;2023-03-31T05:37:51;13.00;49.40
820;DHT22;392;48.838;2.322;2023-03-31T05:40:18;13.00;48.30
820;DHT22;392;48.838;2.322;2023-03-31T05:42:45;13.00;47.90
820;DHT22;392;48.838;2.322;2023-03-31T05:45:14;12.90;47.50
820;DHT22;392;48.838;2.322;2023-03-31T05:47:41;13.00;48.10
820;DHT22;392;48.838;2.322;2023-03-31T05:50:09;13.00;47.70
820;DHT22;392;48.838;2.322;2023-03-31T05:52:36;13.00;47.60
820;DHT22;392;48.838;2.322;2023-03-31T05:55:04;12.90;48.60
820;DHT22;392;48.838;2.322;2023-03-31T05:57:32;13.00;48.20
820;DHT22;392;48.838;2.322;2023-03-31T06:00:00;13.00;48.70
820;DHT22;392;48.838;2.322;2023-03-31T06:02:32;12.90;48.80
820;DHT22;392;48.838;2.322;2023-03-31T06:04:59;12.90;48.60
820;DHT22;392;48.838;2.322;2023-03-31T06:07:26;12.90;49.10
820;DHT22;392;48.838;2.322;2023-03-31T06:09:54;12.90;48.90
820;DHT22;392;48.838;2.322;2023-03-31T06:12:21;12.90;48.10
820;DHT22;392;48.838;2.322;2023-03-31T06:14:48;12.90;48.50
820;DHT22;392;48.838;2.322;2023-03-31T06:17:15;12.90;48.20
820;DHT22;392;48.838;2.322;2023-03-31T06:19:44;12.90;48.20
820;DHT22;392;48.838;2.322;2023-03-31T06:22:11;12.90;48.40
820;DHT22;392;48.838;2.322;2023-03-31T06:24:39;12.90;47.50
820;DHT22;392;48.838;2.322;2023-03-31T06:27:06;13.00;48.20
820;DHT22;392;48.838;2.322;2023-03-31T06:29:33;13.00;46.90
820;DHT22;392;48.838;2.322;2023-03-31T06:32:01;13.00;46.70
820;DHT22;392;48.838;2.322;2023-03-31T06:34:30;13.10;46.30
820;DHT22;392;48.838;2.322;2023-03-31T06:36:58;13.10;46.50
820;DHT22;392;48.838;2.322;2023-03-31T06:39:25;13.10;45.70
820;DHT22;392;48.838;2.322;2023-03-31T06:41:53;13.20;45.90
820;DHT22;392;48.838;2.322;2023-03-31T06:44:26;13.20;45.10
820;DHT22;392;48.838;2.322;2023-03-31T06:46:53;13.20;45.70
820;DHT22;392;48.838;2.322;2023-03-31T06:49:20;13.20;45.90
820;DHT22;392;48.838;2.322;2023-03-31T06:51:48;13.20;46.00
820;DHT22;392;48.838;2.322;2023-03-31T06:54:16;13.30;45.80
820;DHT22;392;48.838;2.322;2023-03-31T06:56:44;13.30;45.00
820;DHT22;392;48.838;2.322;2023-03-31T06:59:11;13.30;44.80
820;DHT22;392;48.838;2.322;2023-03-31T07:01:38;13.30;44.70
820;DHT22;392;48.838;2.322;2023-03-31T07:04:07;13.30;44.40
820;DHT22;392;48.838;2.322;2023-03-31T07:06:34;13.30;43.80
820;DHT22;392;48.838;2.322;2023-03-31T07:09:02;13.40;43.80
820;DHT22;392;48.838;2.322;2023-03-31T07:11:31;13.30;43.80
820;DHT22;392;48.838;2.322;2023-03-31T07:13:58;13.40;43.30
820;DHT22;392;48.838;2.322;2023-03-31T07:16:26;13.40;42.70
820;DHT22;392;48.838;2.322;2023-03-31T07:18:53;13.40;43.00
820;DHT22;392;48.838;2.322;2023-03-31T07:21:24;13.40;43.20
820;DHT22;392;48.838;2.322;2023-03-31T07:23:52;13.40;43.40
820;DHT22;392;48.838;2.322;2023-03-31T07:26:19;13.40;44.40
820;DHT22;392;48.838;2.322;2023-03-31T07:28:48;13.40;43.90
820;DHT22;392;48.838;2.322;2023-03-31T07:31:17;13.30;44.40
820;DHT22;392;48.838;2.322;2023-03-31T07:33:44;13.40;43.90
820;DHT22;392;48.838;2.322;2023-03-31T07:36:11;13.40;43.70
820;DHT22;392;48.838;2.322;2023-03-31T07:38:40;13.50;43.40
820;DHT22;392;48.838;2.322;2023-03-31T07:41:09;13.50;43.50
820;DHT22;392;48.838;2.322;2023-03-31T07:43:37;13.60;43.70
820;DHT22;392;48.838;2.322;2023-03-31T07:46:13;13.60;42.30
820;DHT22;392;48.838;2.322;2023-03-31T07:48:45;13.70;42.40
820;DHT22;392;48.838;2.322;2023-03-31T07:51:14;13.70;42.40
820;DHT22;392;48.838;2.322;2023-03-31T07:53:42;13.70;42.40
820;DHT22;392;48.838;2.322;2023-03-31T07:56:09;13.80;42.40
820;DHT22;392;48.838;2.322;2023-03-31T07:58:37;13.80;42.50
820;DHT22;392;48.838;2.322;2023-03-31T08:01:05;13.80;42.50
820;DHT22;392;48.838;2.322;2023-03-31T08:03:33;13.80;42.50
820;DHT22;392;48.838;2.322;2023-03-31T08:06:00;13.80;43.10
820;DHT22;392;48.838;2.322;2023-03-31T08:08:27;13.70;42.40
820;DHT22;392;48.838;2.322;2023-03-31T08:10:55;13.80;43.60
820;DHT22;392;48.838;2.322;2023-03-31T08:13:22;13.80;43.40
820;DHT22;392;48.838;2.322;2023-03-31T08:15:49;13.80;43.70
820;DHT22;392;48.838;2.322;2023-03-31T08:18:18;13.80;43.90
820;DHT22;392;48.838;2.322;2023-03-31T08:20:45;13.80;44.60
820;DHT22;392;48.838;2.322;2023-03-31T08:23:14;13.80;44.20
820;DHT22;392;48.838;2.322;2023-03-31T08:25:41;13.90;44.50
820;DHT22;392;48.838;2.322;2023-03-31T08:28:09;13.80;44.90
820;DHT22;392;48.838;2.322;2023-03-31T08:30:39;13.80;44.90
820;DHT22;392;48.838;2.322;2023-03-31T08:33:07;13.90;44.60
820;DHT22;392;48.838;2.322;2023-03-31T08:35:35;14.10;43.10
820;DHT22;392;48.838;2.322;2023-03-31T08:38:03;14.20;42.60
820;DHT22;392;48.838;2.322;2023-03-31T08:40:31;14.30;42.10
820;DHT22;392;48.838;2.322;2023-03-31T08:43:03;14.40;41.90
820;DHT22;392;48.838;2.322;2023-03-31T08:45:34;14.50;40.30
820;DHT22;392;48.838;2.322;2023-03-31T08:48:05;14.50;39.50
820;DHT22;392;48.838;2.322;2023-03-31T08:50:44;14.50;39.60
820;DHT22;392;48.838;2.322;2023-03-31T08:53:20;14.50;38.90
820;DHT22;392;48.838;2.322;2023-03-31T08:55:52;14.60;38.20
820;DHT22;392;48.838;2.322;2023-03-31T08:58:28;14.70;36.90
820;DHT22;392;48.838;2.322;2023-03-31T09:01:05;14.90;36.10
820;DHT22;392;48.838;2.322;2023-03-31T09:03:44;14.90;33.40
820;DHT22;392;48.838;2.322;2023-03-31T09:06:22;14.80;33.30
820;DHT22;392;48.838;2.322;2023-03-31T09:08:56;14.80;33.50
820;DHT22;392;48.838;2.322;2023-03-31T09:11:33;14.80;33.70
820;DHT22;392;48.838;2.322;2023-03-31T09:14:16;14.80;33.90
820;DHT22;392;48.838;2.322;2023-03-31T09:16:55;14.80;33.30
820;DHT22;392;48.838;2.322;2023-03-31T09:19:34;14.80;33.70
820;DHT22;392;48.838;2.322;2023-03-31T09:22:10;14.80;33.20
820;DHT22;392;48.838;2.322;2023-03-31T09:24:47;14.90;33.40
820;DHT22;392;48.838;2.322;2023-03-31T09:27:18;14.90;33.30
820;DHT22;392;48.838;2.322;2023-03-31T09:29:49;14.80;33.00
820;DHT22;392;48.838;2.322;2023-03-31T09:32:20;14.70;33.10
820;DHT22;392;48.838;2.322;2023-03-31T09:34:51;14.50;33.80
820;DHT22;392;48.838;2.322;2023-03-31T09:37:21;14.50;35.10
820;DHT22;392;48.838;2.322;2023-03-31T09:39:48;14.60;34.80
820;DHT22;392;48.838;2.322;2023-03-31T09:42:16;14.60;34.40
820;DHT22;392;48.838;2.322;2023-03-31T09:44:45;14.70;33.10
820;DHT22;392;48.838;2.322;2023-03-31T09:47:18;14.80;33.20
820;DHT22;392;48.838;2.322;2023-03-31T09:49:57;14.90;31.50
820;DHT22;392;48.838;2.322;2023-03-31T09:52:29;15.00;30.50
820;DHT22;392;48.838;2.322;2023-03-31T09:54:59;15.20;30.30
820;DHT22;392;48.838;2.322;2023-03-31T09:57:29;15.30;30.00
820;DHT22;392;48.838;2.322;2023-03-31T10:00:03;15.40;29.70
820;DHT22;392;48.838;2.322;2023-03-31T10:02:40;15.50;29.50
820;DHT22;392;48.838;2.322;2023-03-31T10:05:24;15.70;29.20
820;DHT22;392;48.838;2.322;2023-03-31T10:08:13;15.70;28.70
820;DHT22;392;48.838;2.322;2023-03-31T10:10:48;15.90;28.30
820;DHT22;392;48.838;2.322;2023-03-31T10:13:18;15.90;28.00
820;DHT22;392;48.838;2.322;2023-03-31T10:15:51;15.80;28.90
820;DHT22;392;48.838;2.322;2023-03-31T10:18:20;15.70;28.30
820;DHT22;392;48.838;2.322;2023-03-31T10:20:57;15.70;27.90
820;DHT22;392;48.838;2.322;2023-03-31T10:23:29;15.60;28.30
820;DHT22;392;48.838;2.322;2023-03-31T10:25:57;15.30;28.50
820;DHT22;392;48.838;2.322;2023-03-31T10:28:25;15.20;29.20
820;DHT22;392;48.838;2.322;2023-03-31T10:30:54;15.40;29.00
820;DHT22;392;48.838;2.322;2023-03-31T10:33:24;15.60;27.60
820;DHT22;392;48.838;2.322;2023-03-31T10:35:55;15.80;27.30
820;DHT22;392;48.838;2.322;2023-03-31T10:38:28;15.90;26.50
820;DHT22;392;48.838;2.322;2023-03-31T10:40:58;16.10;25.80
820;DHT22;392;48.838;2.322;2023-03-31T10:43:27;16.00;26.00
820;DHT22;392;48.838;2.322;2023-03-31T10:45:56;16.30;25.60
820;DHT22;392;48.838;2.322;2023-03-31T10:48:27;16.30;25.60
820;DHT22;392;48.838;2.322;2023-03-31T10:50:59;16.30;25.60
820;DHT22;392;48.838;2.322;2023-03-31T10:53:38;16.20;25.50
820;DHT22;392;48.838;2.322;2023-03-31T10:56:31;16.10;25.40
820;DHT22;392;48.838;2.322;2023-03-31T10:59:23;16.10;26.00
820;DHT22;392;48.838;2.322;2023-03-31T11:02:20;16.40;25.30
820;DHT22;392;48.838;2.322;2023-03-31T11:05:06;16.60;24.90
820;DHT22;392;48.838;2.322;2023-03-31T11:07:49;16.80;24.40
820;DHT22;392;48.838;2.322;2023-03-31T11:10:33;16.70;25.20
820;DHT22;392;48.838;2.322;2023-03-31T11:13:09;16.50;25.00
820;DHT22;392;48.838;2.322;2023-03-31T11:15:47;16.50;25.70
820;DHT22;392;48.838;2.322;2023-03-31T11:18:40;16.70;24.60
820;DHT22;392;48.838;2.322;2023-03-31T11:21:20;16.60;24.40
820;DHT22;392;48.838;2.322;2023-03-31T11:23:59;16.80;24.40
820;DHT22;392;48.838;2.322;2023-03-31T11:26:38;16.90;23.90
820;DHT22;392;48.838;2.322;2023-03-31T11:29:32;16.80;23.70
820;DHT22;392;48.838;2.322;2023-03-31T11:32:15;16.80;23.90
820;DHT22;392;48.838;2.322;2023-03-31T11:35:05;17.00;23.50
820;DHT22;392;48.838;2.322;2023-03-31T11:38:02;17.00;23.30
820;DHT22;392;48.838;2.322;2023-03-31T11:40:49;16.80;23.60
820;DHT22;392;48.838;2.322;2023-03-31T11:43:27;16.60;23.90
820;DHT22;392;48.838;2.322;2023-03-31T11:46:00;16.50;24.60
820;DHT22;392;48.838;2.322;2023-03-31T11:48:37;16.40;24.80
820;DHT22;392;48.838;2.322;2023-03-31T11:51:12;16.40;24.70
820;DHT22;392;48.838;2.322;2023-03-31T11:53:44;16.70;23.10
820;DHT22;392;48.838;2.322;2023-03-31T11:56:14;16.90;22.20
820;DHT22;392;48.838;2.322;2023-03-31T11:58:46;17.40;22.00
820;DHT22;392;48.838;2.322;2023-03-31T12:01:20;17.60;22.00
820;DHT22;392;48.838;2.322;2023-03-31T12:03:59;18.10;20.30
820;DHT22;392;48.838;2.322;2023-03-31T12:06:30;18.30;20.00
820;DHT22;392;48.838;2.322;2023-03-31T12:09:06;18.20;20.00
820;DHT22;392;48.838;2.322;2023-03-31T12:11:41;18.40;20.00
820;DHT22;392;48.838;2.322;2023-03-31T12:14:23;18.20;20.10
820;DHT22;392;48.838;2.322;2023-03-31T12:16:57;17.80;20.20
820;DHT22;392;48.838;2.322;2023-03-31T12:19:29;17.40;21.90
820;DHT22;392;48.838;2.322;2023-03-31T12:22:05;17.00;23.50
820;DHT22;392;48.838;2.322;2023-03-31T12:24:36;17.10;23.60
820;DHT22;392;48.838;2.322;2023-03-31T12:27:06;17.60;22.40
820;DHT22;392;48.838;2.322;2023-03-31T12:29:43;18.20;20.20
820;DHT22;392;48.838;2.322;2023-03-31T12:32:14;18.60;19.60
820;DHT22;392;48.838;2.322;2023-03-31T12:34:47;18.80;19.00
820;DHT22;392;48.838;2.322;2023-03-31T12:37:46;19.00;19.20
820;DHT22;392;48.838;2.322;2023-03-31T12:40:31;19.30;18.10
820;DHT22;392;48.838;2.322;2023-03-31T12:43:21;19.20;17.10
820;DHT22;392;48.838;2.322;2023-03-31T12:46:03;18.80;17.80
820;DHT22;392;48.838;2.322;2023-03-31T12:49:03;18.90;17.70
820;DHT22;392;48.838;2.322;2023-03-31T12:51:57;18.70;17.60
820;DHT22;392;48.838;2.322;2023-03-31T12:54:41;18.30;18.60
820;DHT22;392;48.838;2.322;2023-03-31T12:57:20;18.00;18.90
820;DHT22;392;48.838;2.322;2023-03-31T13:00:08;17.70;19.40
820;DHT22;392;48.838;2.322;2023-03-31T13:06:10;17.20;20.90
820;DHT22;392;48.838;2.322;2023-03-31T13:08:52;17.10;20.70
820;DHT22;392;48.838;2.322;2023-03-31T13:11:22;16.80;21.10
820;DHT22;392;48.838;2.322;2023-03-31T13:14:04;16.70;21.30
820;DHT22;392;48.838;2.322;2023-03-31T13:16:34;16.60;21.70
820;DHT22;392;48.838;2.322;2023-03-31T13:19:03;16.50;21.60
820;DHT22;392;48.838;2.322;2023-03-31T13:21:31;16.40;22.10
820;DHT22;392;48.838;2.322;2023-03-31T13:24:20;16.40;21.40
820;DHT22;392;48.838;2.322;2023-03-31T13:26:49;16.60;20.70
820;DHT22;392;48.838;2.322;2023-03-31T13:29:21;16.80;20.40
820;DHT22;392;48.838;2.322;2023-03-31T13:32:18;17.00;20.40
820;DHT22;392;48.838;2.322;2023-03-31T13:35:02;17.10;20.20
820;DHT22;392;48.838;2.322;2023-03-31T13:37:51;17.00;20.50
820;DHT22;392;48.838;2.322;2023-03-31T13:40:53;16.80;21.20
820;DHT22;392;48.838;2.322;2023-03-31T13:43:47;16.70;23.30
820;DHT22;392;48.838;2.322;2023-03-31T13:46:57;16.80;23.70
820;DHT22;392;48.838;2.322;2023-03-31T13:49:52;16.70;23.60
820;DHT22;392;48.838;2.322;2023-03-31T13:52:38;16.50;24.20
820;DHT22;392;48.838;2.322;2023-03-31T13:55:33;16.40;24.00
820;DHT22;392;48.838;2.322;2023-03-31T13:58:26;16.30;25.60
820;DHT22;392;48.838;2.322;2023-03-31T14:01:15;16.10;25.50
820;DHT22;392;48.838;2.322;2023-03-31T14:04:19;15.90;27.00
820;DHT22;392;48.838;2.322;2023-03-31T14:06:58;15.80;29.30
820;DHT22;392;48.838;2.322;2023-03-31T14:09:31;15.70;31.40
820;DHT22;392;48.838;2.322;2023-03-31T14:12:01;15.40;36.10
820;DHT22;392;48.838;2.322;2023-03-31T14:14:45;15.00;41.90
820;DHT22;392;48.838;2.322;2023-03-31T14:17:13;14.80;51.00
820;DHT22;392;48.838;2.322;2023-03-31T14:22:47;15.00;46.50
820;DHT22;392;48.838;2.322;2023-03-31T14:25:21;15.30;43.80
820;DHT22;392;48.838;2.322;2023-03-31T14:28:04;15.50;42.60
820;DHT22;392;48.838;2.322;2023-03-31T14:30:49;15.70;41.30
820;DHT22;392;48.838;2.322;2023-03-31T14:33:33;15.70;39.20
820;DHT22;392;48.838;2.322;2023-03-31T14:36:10;15.70;37.40
820;DHT22;392;48.838;2.322;2023-03-31T14:38:42;15.70;34.10
820;DHT22;392;48.838;2.322;2023-03-31T14:41:16;15.60;34.10
820;DHT22;392;48.838;2.322;2023-03-31T14:43:48;15.60;33.40
820;DHT22;392;48.838;2.322;2023-03-31T14:46:20;15.60;32.90
820;DHT22;392;48.838;2.322;2023-03-31T14:48:49;15.60;28.90
820;DHT22;392;48.838;2.322;2023-03-31T14:51:18;15.40;29.00
820;DHT22;392;48.838;2.322;2023-03-31T14:53:56;15.40;29.00
820;DHT22;392;48.838;2.322;2023-03-31T14:56:29;15.30;29.30
820;DHT22;392;48.838;2.322;2023-03-31T14:59:00;15.30;29.70
820;DHT22;392;48.838;2.322;2023-03-31T15:01:30;15.30;31.30
820;DHT22;392;48.838;2.322;2023-03-31T15:04:03;15.30;33.70
820;DHT22;392;48.838;2.322;2023-03-31T15:06:32;15.20;36.20
820;DHT22;392;48.838;2.322;2023-03-31T15:09:03;14.90;42.60
820;DHT22;392;48.838;2.322;2023-03-31T15:11:30;14.60;49.10
820;DHT22;392;48.838;2.322;2023-03-31T15:13:59;14.40;49.10
820;DHT22;392;48.838;2.322;2023-03-31T15:16:30;14.20;48.70
820;DHT22;392;48.838;2.322;2023-03-31T15:19:06;14.20;49.30
820;DHT22;392;48.838;2.322;2023-03-31T15:21:39;14.20;49.80
820;DHT22;392;48.838;2.322;2023-03-31T15:24:10;14.10;47.70
820;DHT22;392;48.838;2.322;2023-03-31T15:26:41;14.20;47.50
820;DHT22;392;48.838;2.322;2023-03-31T15:29:15;14.20;47.30
820;DHT22;392;48.838;2.322;2023-03-31T15:31:44;14.30;46.50
820;DHT22;392;48.838;2.322;2023-03-31T15:34:20;14.30;43.00
820;DHT22;392;48.838;2.322;2023-03-31T15:36:53;14.40;42.00
820;DHT22;392;48.838;2.322;2023-03-31T15:39:23;14.40;39.40
820;DHT22;392;48.838;2.322;2023-03-31T15:41:53;14.50;38.00
820;DHT22;392;48.838;2.322;2023-03-31T15:44:43;14.50;37.60
820;DHT22;392;48.838;2.322;2023-03-31T15:47:15;14.60;35.40
820;DHT22;392;48.838;2.322;2023-03-31T15:49:52;14.50;35.40
820;DHT22;392;48.838;2.322;2023-03-31T15:52:29;14.50;35.20
820;DHT22;392;48.838;2.322;2023-03-31T15:55:01;14.60;34.30
820;DHT22;392;48.838;2.322;2023-03-31T15:57:55;14.60;32.80
820;DHT22;392;48.838;2.322;2023-03-31T16:00:41;14.60;33.00
820;DHT22;392;48.838;2.322;2023-03-31T16:03:15;14.60;33.10
820;DHT22;392;48.838;2.322;2023-03-31T16:05:50;14.70;33.10
820;DHT22;392;48.838;2.322;2023-03-31T16:08:23;14.70;32.50
820;DHT22;392;48.838;2.322;2023-03-31T16:11:00;14.70;31.70
820;DHT22;392;48.838;2.322;2023-03-31T16:13:30;14.60;32.80
820;DHT22;392;48.838;2.322;2023-03-31T16:15:59;14.60;33.10
820;DHT22;392;48.838;2.322;2023-03-31T16:18:31;14.50;33.70
820;DHT22;392;48.838;2.322;2023-03-31T16:21:03;14.50;34.50
820;DHT22;392;48.838;2.322;2023-03-31T16:23:37;14.40;34.90
820;DHT22;392;48.838;2.322;2023-03-31T16:26:09;14.40;36.00
820;DHT22;392;48.838;2.322;2023-03-31T16:28:40;14.40;36.30
820;DHT22;392;48.838;2.322;2023-03-31T16:31:27;14.30;35.70
820;DHT22;392;48.838;2.322;2023-03-31T16:33:59;14.30;35.60
820;DHT22;392;48.838;2.322;2023-03-31T16:36:28;14.40;35.60
820;DHT22;392;48.838;2.322;2023-03-31T16:39:04;14.30;36.00
820;DHT22;392;48.838;2.322;2023-03-31T16:41:36;14.30;35.60
820;DHT22;392;48.838;2.322;2023-03-31T16:44:05;14.40;34.60
820;DHT22;392;48.838;2.322;2023-03-31T16:46:32;14.30;33.20
820;DHT22;392;48.838;2.322;2023-03-31T16:49:00;14.30;33.50
820;DHT22;392;48.838;2.322;2023-03-31T16:51:28;14.20;32.80
820;DHT22;392;48.838;2.322;2023-03-31T16:53:55;14.20;33.20
820;DHT22;392;48.838;2.322;2023-03-31T16:56:23;14.10;33.40
820;DHT22;392;48.838;2.322;2023-03-31T16:58:52;14.10;34.00
820;DHT22;392;48.838;2.322;2023-03-31T17:01:21;14.10;34.50
820;DHT22;392;48.838;2.322;2023-03-31T17:03:48;14.10;34.50
820;DHT22;392;48.838;2.322;2023-03-31T17:06:16;14.10;35.10
820;DHT22;392;48.838;2.322;2023-03-31T17:08:45;14.10;34.70
820;DHT22;392;48.838;2.322;2023-03-31T17:11:14;14.10;34.60
820;DHT22;392;48.838;2.322;2023-03-31T17:13:47;14.10;34.70
820;DHT22;392;48.838;2.322;2023-03-31T17:16:18;14.10;34.60
820;DHT22;392;48.838;2.322;2023-03-31T17:18:48;14.10;34.60
820;DHT22;392;48.838;2.322;2023-03-31T17:21:16;14.10;34.60
820;DHT22;392;48.838;2.322;2023-03-31T17:23:44;14.10;35.20
820;DHT22;392;48.838;2.322;2023-03-31T17:26:15;14.10;35.50